Kezdőlap
METAR-TAF:

METAR-TAF

Repülőterek :

Altenstadt, Németország

földrajzi szélesség: 47-50N, földrajzi hosszúság: 010-52E, magasság: 739 m

Jelenlegi meteorológiai megfigyelések

A jelentés 52 perccel ezelõtt készült, 11:20 UTC
Nyugati szél 22 kt
Hőmérséklet 6°C
Páratartalom 56%
Légköri nyomás 1027 hPa
Látótávolság 10 km, vagy több
Szórványos felhőzet 3000 lábon

METAR: ETHA 181120Z 28022KT 9999 SCT030 06/M02 Q1027 BLU+BLU+ TEMPO BLU

Idő: 13:12 (12:12 UTC)

Előrejelzés

A jelentés 56 perccel ezelõtt készült, 11:16 UTC
Az előrejelzés 18-én 12 óra UTC és 18-én 21 óra UTC között érvényes
Nyugati szél 15 kt széllökések: 25 kt
Látótávolság 10 km, vagy több
Szórványos felhőzet 3000 lábon
18-én 12 óra UTC és 18-én 16 óra UTC között ideiglenes
Nyugati szél 20 kt széllökések: 30 kt
Látótávolság 10 km, vagy több
Szakadozott felhőzet 2500 lábon

TAF: ETHA 181116Z 1812/1821 26015G25KT 9999 NSW SCT030 TEMPO 1812/1816 27020G30KT 9999 NSW BKN025

Meteorológiai megfigyelések és előrejelzések több, mint 4000 repülőtéren (METAR és TAF jelentéseket).

A térképen piros és sárga pontok jelzik az elérhető meteorológiai állomásokat.

Mozgassa az egeret a pont fölött, hogy megjelenjen az állomás neve.

Azután kattintson az időjárási megfigyelések és előrejelzések megtekintéséhez.

A térkép megváltoztatása: kattintson a fekete keresztel jelölt zöld gombra ráközelítéshez, a vonallal jelölt zöld gombra távolításhoz, vagy a zöld nyilakra a szomszédos térképek eléréséhez.


METAR-TAF: